Time;durP1;ratioP1;P1;durP2;ratioP2;P2;SDS_P1;SDS_P2;PMS_P1;PMS_P2;Temp;Humidity;BMP_temperature;BMP_pressure;BME280_temperature;BME280_humidity;BME280_pressure;Samples;Min_cycle;Max_cycle;Signal;HPM_P1;HPM_P2
2022/11/28 00:01:08;;;;;;;;;;;4.70;99.90;;;3.92;100.00;97080.25;5069945;28;20020;-40
2022/11/28 00:03:34;;;;;;;;;;;4.70;99.90;;;3.92;100.00;97097.66;5072474;28;19972;-40
2022/11/28 00:06:04;;;;;;;;;;;4.70;99.90;;;3.90;100.00;97095.06;5073491;28;20014;-40
2022/11/28 00:08:30;;;;;;;;;;;4.70;99.90;;;3.83;100.00;97096.91;5075570;28;19919;-39
2022/11/28 00:10:55;;;;;;;;;;;4.70;99.90;;;3.79;100.00;97105.69;5069492;28;20265;-39
2022/11/28 00:13:21;;;;;;;;;;;4.70;99.90;;;3.80;100.00;97101.31;5069364;28;19920;-40
2022/11/28 00:15:57;;;;;;;;;;;4.70;99.90;;;3.80;100.00;97103.91;5070058;28;19962;-39
2022/11/28 00:18:23;;;;;;;;;;;4.60;99.90;;;3.83;100.00;97098.66;5071374;28;19971;-40
2022/11/28 00:20:48;;;;;;;;;;;4.60;99.90;;;3.86;100.00;97097.75;5053907;28;20368;-40
2022/11/28 00:23:14;;;;;;;;;;;4.60;99.90;;;3.75;100.00;97077.91;5054548;28;19951;-40
2022/11/28 00:25:39;;;;;;;;;;;4.70;99.90;;;3.89;100.00;97100.31;5070187;28;20371;-40
2022/11/28 00:28:05;;;;;;;;;;;4.70;99.90;;;3.90;100.00;97084.63;5072322;28;19916;-40
2022/11/28 00:30:35;;;;;;;;;;;4.70;99.90;;;3.95;100.00;97085.44;5075265;28;19919;-40
2022/11/28 00:33:00;;;;;;;;;;;4.80;99.90;;;3.97;100.00;97082.81;5068156;28;20441;-39
2022/11/28 00:35:26;;;;;;;;;;;4.80;99.90;;;3.97;100.00;97083.66;5075306;28;19919;-40
2022/11/28 00:37:51;;;;;;;;;;;4.70;99.90;;;3.97;100.00;97082.81;5069168;28;19967;-40
2022/11/28 00:40:17;;;;;;;;;;;4.80;99.90;;;3.99;100.00;97084.50;5076051;28;19916;-40
2022/11/28 00:42:43;;;;;;;;;;;4.80;99.90;;;4.00;100.00;97086.22;5069474;28;19916;-40
2022/11/28 00:45:09;;;;;;;;;;;4.80;99.90;;;3.87;100.00;97063.81;5068641;28;19919;-40
2022/11/28 00:47:34;;;;;;;;;;;4.80;99.90;;;3.99;100.00;97076.66;5069183;28;20279;-39
2022/11/28 00:50:00;;;;;;;;;;;4.80;99.90;;;3.99;100.00;97067.97;5070661;28;20018;-39
2022/11/28 00:52:25;;;;;;;;;;;4.80;99.90;;;3.94;100.00;97073.25;5068898;28;20323;-40
2022/11/28 00:54:51;;;;;;;;;;;4.80;99.90;;;3.87;100.00;97074.25;5071733;28;20427;-39
2022/11/28 00:57:16;;;;;;;;;;;4.70;99.90;;;3.88;100.00;97075.97;5070122;28;19947;-40
2022/11/28 00:59:42;;;;;;;;;;;4.70;99.90;;;3.90;100.00;97070.75;5067842;28;19917;-40
2022/11/28 01:02:08;;;;;;;;;;;4.70;99.90;;;3.92;100.00;97072.44;5070358;28;19915;-40
2022/11/28 01:04:33;;;;;;;;;;;4.70;99.90;;;3.92;100.00;97066.34;5067096;28;20561;-39
2022/11/28 01:06:59;;;;;;;;;;;4.70;99.90;;;3.92;100.00;97054.16;5066947;28;19959;-39
2022/11/28 01:09:25;;;;;;;;;;;4.70;99.90;;;3.93;100.00;97058.50;5069398;28;19926;-40
2022/11/28 01:11:52;;;;;;;;;;;4.80;99.90;;;3.92;100.00;97058.53;5067565;28;19966;-40
2022/11/28 01:14:22;;;;;;;;;;;4.70;99.90;;;3.91;100.00;97047.25;5070549;28;20094;-40
2022/11/28 01:16:47;;;;;;;;;;;4.70;99.90;;;3.93;100.00;97052.41;5068200;28;20715;-39
2022/11/28 01:19:13;;;;;;;;;;;4.70;99.90;;;3.93;100.00;97049.81;5072585;28;19920;-39
2022/11/28 01:21:39;;;;;;;;;;;4.70;99.90;;;3.93;100.00;97039.38;5069711;28;20280;-40
2022/11/28 01:24:05;;;;;;;;;;;4.70;99.90;;;3.92;100.00;97032.44;5069658;28;20093;-39
2022/11/28 01:26:31;;;;;;;;;;;4.70;99.90;;;3.91;100.00;97042.03;5068935;28;20050;-40
2022/11/28 01:28:58;;;;;;;;;;;4.70;99.90;;;3.91;100.00;97041.13;5064614;28;20011;-40
2022/11/28 01:31:26;;;;;;;;;;;4.70;99.90;;;3.90;100.00;97042.91;5053374;28;19919;-40
2022/11/28 01:33:51;;;;;;;;;;;4.70;99.90;;;3.91;100.00;97044.63;5068077;28;19923;-40
2022/11/28 01:36:18;;;;;;;;;;;4.70;99.90;;;3.91;100.00;97046.38;5069865;28;20492;-39
2022/11/28 01:38:44;;;;;;;;;;;4.70;99.90;;;3.90;100.00;97045.50;5070209;28;20806;-39
2022/11/28 01:41:10;;;;;;;;;;;4.70;99.90;;;3.90;100.00;97052.47;5074492;28;20022;-40
2022/11/28 01:43:36;;;;;;;;;;;4.70;99.90;;;3.88;100.00;97051.66;5065610;28;19934;-40
2022/11/28 01:46:04;;;;;;;;;;;4.70;99.90;;;3.83;100.00;97038.66;5074058;28;20355;-40
2022/11/28 01:48:32;;;;;;;;;;;4.70;99.90;;;3.87;100.00;97055.97;5073230;28;19944;-39
2022/11/28 01:51:02;;;;;;;;;;;4.60;99.90;;;3.82;100.00;97043.03;5074048;28;20057;-40
2022/11/28 01:53:29;;;;;;;;;;;4.60;99.90;;;3.80;100.00;97041.31;5053899;28;19916;-39
2022/11/28 01:55:59;;;;;;;;;;;4.60;99.90;;;3.75;100.00;97030.09;5070832;28;19915;-39
2022/11/28 01:58:25;;;;;;;;;;;4.60;99.90;;;3.73;100.00;97034.47;5053507;28;19919;-40
2022/11/28 02:00:51;;;;;;;;;;;4.50;99.90;;;3.69;100.00;97027.59;5054212;28;19948;-40
2022/11/28 02:03:21;;;;;;;;;;;4.50;99.90;;;3.67;100.00;97027.63;5053000;28;20015;-40
2022/11/28 02:05:49;;;;;;;;;;;4.50;99.90;;;3.65;100.00;97029.38;5052641;28;19930;-40
2022/11/28 02:08:15;;;;;;;;;;;4.50;99.90;;;3.65;100.00;97026.78;5051619;28;19916;-39
2022/11/28 02:11:14;;;;;;;;;;;4.50;99.90;;;3.66;100.00;97025.03;5068383;28;19949;-39
2022/11/28 02:13:51;;;;;;;;;;;4.50;99.90;;;3.64;100.00;97012.00;5061026;28;20406;-40
2022/11/28 02:16:53;;;;;;;;;;;4.40;99.90;;;3.61;100.00;97005.09;5067838;28;20219;-40
2022/11/28 02:20:00;;;;;;;;;;;4.40;99.90;;;3.65;100.00;96999.84;5063600;28;19924;-39
2022/11/28 02:22:40;;;;;;;;;;;4.40;99.90;;;3.63;100.00;96995.50;5045121;28;20003;-39
2022/11/28 02:25:25;;;;;;;;;;;4.50;99.90;;;3.63;100.00;96984.22;5049741;28;20232;-40
2022/11/28 02:27:59;;;;;;;;;;;4.50;99.90;;;3.63;100.00;96979.84;5065850;28;20463;-40
2022/11/28 02:30:44;;;;;;;;;;;4.50;99.90;;;3.53;100.00;96960.03;5065541;28;19916;-40
2022/11/28 02:33:19;;;;;;;;;;;4.50;99.90;;;3.66;100.00;96971.13;5050401;28;19939;-39
2022/11/28 02:36:06;;;;;;;;;;;4.50;99.90;;;3.65;100.00;96966.78;5065959;28;19920;-40
2022/11/28 02:38:53;;;;;;;;;;;4.50;99.90;;;3.67;100.00;96957.19;5067434;28;19919;-39
2022/11/28 02:41:43;;;;;;;;;;;4.50;99.90;;;3.68;100.00;96958.03;5053920;28;19912;-39
2022/11/28 02:44:40;;;;;;;;;;;4.50;99.90;;;3.69;100.00;96949.34;5066810;28;19912;-39
2022/11/28 02:47:11;;;;;;;;;;;4.50;99.90;;;3.68;100.00;96961.53;5062354;28;19951;-39
2022/11/28 02:50:01;;;;;;;;;;;4.60;99.90;;;3.68;100.00;96963.25;5054176;28;19912;-39
2022/11/28 02:52:38;;;;;;;;;;;4.60;99.90;;;3.70;100.00;96959.75;5072081;28;19986;-39
2022/11/28 02:55:05;;;;;;;;;;;4.60;99.90;;;3.59;100.00;96952.13;5061267;28;19924;-39
2022/11/28 02:57:41;;;;;;;;;;;4.60;99.90;;;3.72;100.00;96964.97;5052709;28;19924;-40
2022/11/28 03:00:28;;;;;;;;;;;4.60;99.90;;;3.71;100.00;96942.34;5068236;28;19973;-39
2022/11/28 03:03:18;;;;;;;;;;;4.60;99.90;;;3.76;100.00;96922.28;5071510;28;20179;-40
2022/11/28 03:05:57;;;;;;;;;;;4.50;99.90;;;3.74;100.00;96942.31;5071291;28;19923;-39
2022/11/28 03:08:45;;;;;;;;;;;4.60;99.90;;;3.75;100.00;96928.38;5067496;28;19923;-40
2022/11/28 03:11:26;;;;;;;;;;;4.60;99.90;;;3.76;100.00;96920.53;5051181;28;19911;-40
2022/11/28 03:14:13;;;;;;;;;;;4.60;99.90;;;3.75;100.00;96936.19;5067997;28;19920;-40
2022/11/28 03:16:47;;;;;;;;;;;4.60;99.90;;;3.77;100.00;96932.69;5070804;28;19916;-40
2022/11/28 03:19:21;;;;;;;;;;;4.60;99.90;;;3.76;100.00;96930.09;5045893;28;19923;-40
2022/11/28 03:21:58;;;;;;;;;;;4.60;99.90;;;3.77;100.00;96917.03;5070839;28;19916;-39
2022/11/28 03:24:37;;;;;;;;;;;4.60;99.90;;;3.79;100.00;96930.91;5043927;28;19977;-40
2022/11/28 03:27:04;;;;;;;;;;;4.60;99.90;;;3.80;100.00;96923.94;5048490;28;19920;-39
2022/11/28 03:29:40;;;;;;;;;;;4.60;99.90;;;3.81;100.00;96936.97;5053234;28;20190;-40
2022/11/28 03:32:09;;;;;;;;;;;4.60;99.90;;;3.83;100.00;96944.75;5068789;28;19921;-40
2022/11/28 03:34:39;;;;;;;;;;;4.60;99.90;;;3.86;100.00;96933.41;5068091;28;19924;-39
2022/11/28 03:37:10;;;;;;;;;;;4.60;99.90;;;3.90;100.00;96935.94;5061448;28;19948;-40
2022/11/28 03:39:39;;;;;;;;;;;4.70;99.90;;;3.91;100.00;96939.41;5075862;28;19972;-39
2022/11/28 03:42:09;;;;;;;;;;;4.70;99.90;;;3.85;100.00;96929.09;5073725;22;19920;-41
2022/11/28 03:44:44;;;;;;;;;;;4.80;99.90;;;3.91;100.00;96926.34;5055596;28;19932;-48
2022/11/28 03:47:10;;;;;;;;;;;4.70;99.90;;;3.93;100.00;96924.56;5045926;28;19994;-43
2022/11/28 03:49:42;;;;;;;;;;;4.70;99.90;;;3.91;100.00;96922.03;5047012;28;20019;-44
2022/11/28 03:52:12;;;;;;;;;;;4.70;99.90;;;3.91;100.00;96910.69;5044367;28;19919;-43
2022/11/28 03:55:02;;;;;;;;;;;4.70;99.90;;;3.93;100.00;96911.53;5021939;28;19925;-44
2022/11/28 03:57:37;;;;;;;;;;;4.70;99.90;;;3.90;100.00;96909.84;5039606;28;19912;-47
2022/11/28 04:00:06;;;;;;;;;;;4.70;99.90;;;3.86;100.00;96905.59;5044799;28;19969;-44
2022/11/28 04:02:59;;;;;;;;;;;4.70;99.90;;;3.82;100.00;96909.13;5044110;28;20062;-44
2022/11/28 04:05:45;;;;;;;;;;;4.70;99.90;;;3.86;100.00;96908.19;5020720;28;20380;-43
2022/11/28 04:08:26;;;;;;;;;;;4.70;99.90;;;3.88;100.00;96901.19;5030302;28;20616;-45
2022/11/28 04:10:56;;;;;;;;;;;4.70;99.90;;;3.92;100.00;96908.06;5026220;28;19912;-44
2022/11/28 04:13:28;;;;;;;;;;;4.80;99.90;;;3.95;100.00;96912.38;5023424;28;19967;-44
2022/11/28 04:16:12;;;;;;;;;;;4.80;99.90;;;3.96;100.00;96912.34;5013451;28;19979;-44
2022/11/28 04:19:02;;;;;;;;;;;4.80;99.90;;;3.96;100.00;96916.69;5036006;28;19926;-44
2022/11/28 04:21:41;;;;;;;;;;;4.80;99.90;;;3.96;100.00;96919.31;5040267;28;20198;-45
2022/11/28 04:24:11;;;;;;;;;;;4.70;99.90;;;3.90;100.00;96915.06;5024489;28;20011;-45
2022/11/28 04:26:57;;;;;;;;;;;4.70;99.90;;;3.95;100.00;96915.00;5014849;28;19921;-45
2022/11/28 04:29:23;;;;;;;;;;;4.80;99.90;;;3.92;100.00;96921.13;5025671;28;19927;-43
2022/11/28 04:31:52;;;;;;;;;;;4.70;99.90;;;3.91;100.00;96910.69;5024599;28;19916;-46
2022/11/28 04:34:19;;;;;;;;;;;4.70;99.90;;;3.85;100.00;96901.25;5041921;28;19921;-43
2022/11/28 04:36:46;;;;;;;;;;;4.70;99.90;;;3.86;100.00;96908.19;5020056;28;19977;-45
2022/11/28 04:39:16;;;;;;;;;;;4.70;99.90;;;3.86;100.00;96905.59;5042417;28;19917;-44
2022/11/28 04:41:51;;;;;;;;;;;4.70;99.90;;;3.83;100.00;96901.25;5014747;28;20781;-44
2022/11/28 04:44:22;;;;;;;;;;;4.70;99.90;;;3.85;100.00;96905.59;5018250;28;19920;-43
2022/11/28 04:46:51;;;;;;;;;;;4.60;99.90;;;3.78;100.00;96890.06;5018846;28;20356;-44
2022/11/28 04:49:17;;;;;;;;;;;4.70;99.90;;;3.82;100.00;96886.53;5005727;28;19921;-45
2022/11/28 04:52:08;;;;;;;;;;;4.70;99.90;;;3.82;100.00;96894.34;5017980;28;19947;-44
2022/11/28 04:55:00;;;;;;;;;;;4.60;99.90;;;3.78;100.00;96887.44;5038189;28;19912;-44
2022/11/28 04:57:29;;;;;;;;;;;4.60;99.90;;;3.84;100.00;96894.31;5042909;28;20380;-45
2022/11/28 04:59:55;;;;;;;;;;;4.60;99.90;;;3.81;100.00;96891.75;5042734;28;19924;-44
2022/11/28 05:02:22;;;;;;;;;;;4.60;99.90;;;3.77;100.00;96890.09;5024206;28;19912;-45
2022/11/28 05:04:47;;;;;;;;;;;4.60;99.90;;;3.80;100.00;96888.31;5034022;28;20003;-44
2022/11/28 05:07:13;;;;;;;;;;;4.60;99.90;;;3.77;100.00;96888.34;5023454;28;19973;-44
2022/11/28 05:09:38;;;;;;;;;;;4.60;99.90;;;3.76;100.00;96880.53;5027849;28;19997;-44
2022/11/28 05:12:05;;;;;;;;;;;4.60;99.90;;;3.79;100.00;96888.31;5034891;28;19920;-44
2022/11/28 05:14:30;;;;;;;;;;;4.60;99.90;;;3.76;100.00;96894.44;5038234;28;20023;-44
2022/11/28 05:16:56;;;;;;;;;;;4.50;99.90;;;3.74;100.00;96892.75;5045077;28;20004;-44
2022/11/28 05:19:22;;;;;;;;;;;4.50;99.90;;;3.69;100.00;96881.53;5042631;28;19960;-43
2022/11/28 05:21:47;;;;;;;;;;;4.50;99.90;;;3.70;100.00;96898.94;5041713;28;20039;-44
2022/11/28 05:24:13;;;;;;;;;;;4.40;99.90;;;3.67;100.00;96894.59;5049806;28;19920;-44
2022/11/28 05:26:39;;;;;;;;;;;4.40;99.90;;;3.65;100.00;96893.78;5041261;28;20675;-44
2022/11/28 05:29:04;;;;;;;;;;;4.50;99.90;;;3.62;100.00;96896.44;5048032;28;20493;-43
2022/11/28 05:31:30;;;;;;;;;;;4.40;99.90;;;3.61;100.00;96898.19;5045851;28;19971;-45
2022/11/28 05:33:56;;;;;;;;;;;4.40;99.90;;;3.58;100.00;96892.16;5044633;28;20400;-45
2022/11/28 05:36:21;;;;;;;;;;;4.40;99.90;;;3.61;100.00;96906.00;5042535;28;20400;-45
2022/11/28 05:38:47;;;;;;;;;;;4.50;99.90;;;3.67;100.00;96912.00;5041367;28;19912;-44
2022/11/28 05:41:23;;;;;;;;;;;4.50;99.90;;;3.66;100.00;96915.50;5037760;28;19970;-44
2022/11/28 05:43:49;;;;;;;;;;;4.50;99.90;;;3.67;100.00;96915.47;5038155;28;19920;-43
2022/11/28 05:46:14;;;;;;;;;;;4.50;99.90;;;3.71;100.00;96917.13;5042801;28;19920;-43
2022/11/28 05:48:40;;;;;;;;;;;4.50;99.90;;;3.71;100.00;96930.16;5041615;28;20364;-43
2022/11/28 05:51:06;;;;;;;;;;;4.50;99.90;;;3.68;100.00;96913.72;5019736;28;19917;-45
2022/11/28 05:53:32;;;;;;;;;;;4.50;99.90;;;3.71;100.00;96922.34;5026402;28;20361;-43
2022/11/28 05:55:58;;;;;;;;;;;4.50;99.90;;;3.73;100.00;96918.00;5028461;28;19939;-43
2022/11/28 05:58:23;;;;;;;;;;;4.60;99.90;;;3.73;100.00;96922.31;5038100;28;20658;-44
2022/11/28 06:00:49;;;;;;;;;;;4.50;99.90;;;3.70;100.00;96922.41;5042257;28;19978;-43
2022/11/28 06:03:14;;;;;;;;;;;4.50;99.90;;;3.69;100.00;96913.69;5032014;28;20370;-44
2022/11/28 06:05:41;;;;;;;;;;;4.50;99.90;;;3.69;100.00;96920.66;5034670;28;19927;-43
2022/11/28 06:08:07;;;;;;;;;;;4.50;99.90;;;3.69;100.00;96923.28;5024769;28;19963;-43
2022/11/28 06:10:34;;;;;;;;;;;4.50;99.90;;;3.70;100.00;96911.97;5021341;28;20452;-44
2022/11/28 06:12:59;;;;;;;;;;;4.50;99.90;;;3.65;100.00;96909.44;5029865;28;20410;-44
2022/11/28 06:15:25;;;;;;;;;;;4.50;99.90;;;3.63;100.00;96919.88;5027575;28;20802;-44
2022/11/28 06:17:50;;;;;;;;;;;4.50;99.90;;;3.60;100.00;96922.53;5034237;28;19921;-45
2022/11/28 06:20:16;;;;;;;;;;;4.40;99.90;;;3.59;100.00;96923.44;5038173;28;20388;-44
2022/11/28 06:22:42;;;;;;;;;;;4.40;99.90;;;3.59;100.00;96928.66;5044824;28;19920;-44
2022/11/28 06:25:07;;;;;;;;;;;4.40;99.90;;;3.58;100.00;96926.06;5042914;28;20193;-44
2022/11/28 06:27:34;;;;;;;;;;;4.40;99.90;;;3.52;100.00;96908.78;5040908;28;19917;-43
2022/11/28 06:29:59;;;;;;;;;;;4.40;99.90;;;3.59;100.00;96920.81;5038539;28;19928;-44
2022/11/28 06:32:25;;;;;;;;;;;4.40;99.90;;;3.57;100.00;96920.00;5041287;28;20285;-44
2022/11/28 06:34:51;;;;;;;;;;;4.40;99.90;;;3.58;100.00;96926.91;5039809;28;20646;-44
2022/11/28 06:37:16;;;;;;;;;;;4.40;99.90;;;3.46;100.00;96898.44;5043549;28;20399;-44
2022/11/28 06:39:42;;;;;;;;;;;4.40;99.90;;;3.59;100.00;96925.19;5039700;28;19973;-43
2022/11/28 06:42:07;;;;;;;;;;;4.40;99.90;;;3.59;100.00;96925.19;5046431;28;20196;-43
2022/11/28 06:44:33;;;;;;;;;;;4.40;99.90;;;3.61;100.00;96923.41;5049095;28;19925;-43
2022/11/28 06:46:59;;;;;;;;;;;4.40;99.90;;;3.61;100.00;96920.81;5040847;28;19919;-43
2022/11/28 06:49:24;;;;;;;;;;;4.40;99.90;;;3.61;100.00;96913.84;5032884;28;19964;-43
2022/11/28 06:51:50;;;;;;;;;;;4.40;99.90;;;3.68;100.00;96918.94;5027143;28;19913;-44
2022/11/28 06:54:16;;;;;;;;;;;4.40;99.90;;;3.54;100.00;96891.34;5043308;28;20007;-43
2022/11/28 06:56:42;;;;;;;;;;;4.40;99.90;;;3.69;100.00;96910.22;5034403;28;20647;-44
2022/11/28 06:59:10;;;;;;;;;;;4.50;99.90;;;3.55;100.00;96884.38;5041631;28;19951;-44
2022/11/28 07:01:35;;;;;;;;;;;4.50;99.90;;;3.73;100.00;96915.38;5039329;28;19919;-44
2022/11/28 07:04:01;;;;;;;;;;;4.50;99.90;;;3.77;100.00;96914.44;5036994;28;21482;-46
2022/11/28 07:06:27;;;;;;;;;;;4.50;99.90;;;3.78;100.00;96915.28;5039885;28;20013;-43
2022/11/28 07:08:55;;;;;;;;;;;4.60;99.90;;;3.85;100.00;96924.72;5035758;28;19921;-44
2022/11/28 07:11:24;;;;;;;;;;;4.60;99.90;;;3.87;100.00;96922.09;5016246;28;19917;-44
2022/11/28 07:13:50;;;;;;;;;;;4.60;99.90;;;3.85;100.00;96916.91;5021581;28;19912;-44
2022/11/28 07:16:24;;;;;;;;;;;4.60;99.90;;;3.90;100.00;96903.78;5027640;28;19960;-43
2022/11/28 07:18:50;;;;;;;;;;;4.70;99.90;;;3.95;100.00;96917.59;5032118;28;20211;-40
2022/11/28 07:21:16;;;;;;;;;;;4.70;99.90;;;4.00;100.00;96928.78;5035806;28;19919;-40
2022/11/28 07:23:42;;;;;;;;;;;4.80;99.90;;;4.04;100.00;96943.53;5044638;28;20391;-41
2022/11/28 07:26:09;;;;;;;;;;;4.80;99.90;;;4.10;100.00;96947.75;5044951;28;20021;-40
2022/11/28 07:28:35;;;;;;;;;;;4.90;99.90;;;4.14;100.00;96942.44;5048063;28;19916;-42
2022/11/28 07:31:09;;;;;;;;;;;4.90;99.90;;;4.21;100.00;96945.81;5032562;28;20426;-42
2022/11/28 07:33:38;;;;;;;;;;;4.90;99.90;;;4.25;100.00;96942.25;5040652;28;19920;-42
2022/11/28 07:36:06;;;;;;;;;;;5.00;99.90;;;4.24;100.00;96931.84;5037586;28;19925;-42
2022/11/28 07:38:32;;;;;;;;;;;5.10;99.90;;;4.23;100.00;96919.69;5044396;28;19953;-42
2022/11/28 07:41:10;;;;;;;;;;;5.10;99.90;;;4.37;100.00;96941.16;5037280;28;19913;-42
2022/11/28 07:43:36;;;;;;;;;;;5.10;99.90;;;4.41;100.00;96948.03;5034348;28;19916;-42
2022/11/28 07:46:07;;;;;;;;;;;5.20;99.90;;;4.45;100.00;96938.38;5037320;28;19917;-42
2022/11/28 07:48:33;;;;;;;;;;;5.20;99.90;;;4.48;100.00;96933.97;5039486;28;19912;-42
2022/11/28 07:51:04;;;;;;;;;;;5.20;99.90;;;4.53;100.00;96929.50;5021000;28;19920;-42
2022/11/28 07:53:29;;;;;;;;;;;5.30;99.90;;;4.58;100.00;96934.66;5024911;28;20285;-41
2022/11/28 07:55:55;;;;;;;;;;;5.30;99.90;;;4.66;100.00;96927.50;5025106;28;19931;-42
2022/11/28 07:58:21;;;;;;;;;;;5.40;99.90;;;4.69;100.00;96935.28;5011939;28;20035;-42
2022/11/28 08:00:47;;;;;;;;;;;5.50;99.90;;;4.75;100.00;96932.53;5022343;28;19913;-40
2022/11/28 08:03:12;;;;;;;;;;;5.50;99.90;;;4.79;100.00;96922.88;5035765;28;19917;-41
2022/11/28 08:05:38;;;;;;;;;;;5.60;99.90;;;4.84;100.00;96931.47;5032654;28;19920;-42
2022/11/28 08:08:04;;;;;;;;;;;5.60;99.90;;;4.88;100.00;96942.72;5033015;28;23212;-41
2022/11/28 08:10:30;;;;;;;;;;;5.70;99.90;;;4.95;100.00;96931.22;5030957;28;20411;-41
2022/11/28 08:12:55;;;;;;;;;;;5.70;99.90;;;4.96;100.00;96932.97;5030328;28;20366;-42
2022/11/28 08:15:21;;;;;;;;;;;5.80;99.90;;;5.06;100.00;96941.44;5027694;28;20059;-43
2022/11/28 08:17:46;;;;;;;;;;;5.80;99.90;;;5.12;100.00;96936.09;5038072;28;20402;-42
2022/11/28 08:20:12;;;;;;;;;;;5.90;99.90;;;5.16;100.00;96935.13;5032380;28;20392;-43
2022/11/28 08:22:38;;;;;;;;;;;5.90;99.90;;;5.22;100.00;96940.19;5021511;28;19956;-43
2022/11/28 08:25:04;;;;;;;;;;;6.00;99.90;;;5.28;100.00;96944.44;5037823;28;20016;-42
2022/11/28 08:27:30;;;;;;;;;;;6.00;99.90;;;5.34;100.00;96936.44;5046360;28;19955;-42
2022/11/28 08:29:56;;;;;;;;;;;6.10;99.90;;;5.38;100.00;96953.78;5039852;28;19913;-41
2022/11/28 08:32:21;;;;;;;;;;;6.10;99.90;;;5.45;100.00;96950.13;5042321;28;19920;-42
2022/11/28 08:34:47;;;;;;;;;;;6.20;99.90;;;5.51;100.00;96941.31;5046130;28;19936;-41
2022/11/28 08:37:13;;;;;;;;;;;6.30;99.90;;;5.56;100.00;96947.25;5040912;28;19928;-42
2022/11/28 08:39:38;;;;;;;;;;;6.30;99.90;;;5.59;100.00;96938.50;5033229;28;20007;-41
2022/11/28 08:42:04;;;;;;;;;;;6.40;99.90;;;5.71;100.00;96940.81;5035268;28;20621;-41
2022/11/28 08:44:29;;;;;;;;;;;6.40;99.90;;;5.72;100.00;96935.53;5032018;28;19920;-42
2022/11/28 08:46:55;;;;;;;;;;;6.50;99.90;;;5.84;100.00;96942.19;5041806;28;19916;-42
2022/11/28 08:49:21;;;;;;;;;;;6.60;99.90;;;5.90;100.00;96936.81;5028808;28;19959;-43
2022/11/28 08:51:46;;;;;;;;;;;6.60;99.90;;;5.95;100.00;96933.22;5030774;28;20311;-42
2022/11/28 08:54:12;;;;;;;;;;;6.70;99.90;;;5.99;100.00;96924.41;5036673;28;20288;-42
2022/11/28 08:56:37;;;;;;;;;;;6.70;99.90;;;6.04;100.00;96930.41;5037799;28;19928;-42
2022/11/28 08:59:03;;;;;;;;;;;6.80;99.90;;;5.94;100.00;96908.81;5043895;28;20237;-42
2022/11/28 09:01:29;;;;;;;;;;;6.80;99.90;;;6.14;100.00;96942.34;5040116;28;19978;-42
2022/11/28 09:03:55;;;;;;;;;;;6.90;99.90;;;6.20;100.00;96931.69;5039700;28;19921;-42
2022/11/28 09:06:22;;;;;;;;;;;6.90;99.90;;;6.28;100.00;96948.06;5035154;28;19917;-43
2022/11/28 09:08:48;;;;;;;;;;;7.00;99.90;;;6.40;100.00;96940.78;5023269;28;19974;-41
2022/11/28 09:11:16;;;;;;;;;;;7.20;99.90;;;6.48;100.00;96937.03;5045881;28;19951;-41
2022/11/28 09:13:42;;;;;;;;;;;7.30;99.90;;;6.67;100.00;96933.88;5041351;28;19927;-41
2022/11/28 09:16:08;;;;;;;;;;;7.40;99.90;;;6.80;100.00;96944.88;5042007;28;19927;-42
2022/11/28 09:18:34;;;;;;;;;;;7.50;99.90;;;6.88;100.00;96937.66;5046787;28;20508;-42
2022/11/28 09:21:01;;;;;;;;;;;7.60;99.90;;;6.95;100.00;96926.09;5045858;28;19916;-41
2022/11/28 09:23:27;;;;;;;;;;;7.70;99.90;;;7.01;100.00;96925.88;5050241;28;19912;-42
2022/11/28 09:25:53;;;;;;;;;;;7.70;99.90;;;7.03;100.00;96931.09;5044958;28;19967;-42
2022/11/28 09:28:19;;;;;;;;;;;7.70;99.90;;;7.08;100.00;96937.91;5048673;28;20335;-41
2022/11/28 09:30:44;;;;;;;;;;;7.80;99.90;;;7.17;100.00;96944.63;5043327;28;19917;-42
2022/11/28 09:33:12;;;;;;;;;;;7.90;99.90;;;7.23;100.00;96949.72;5041232;28;19916;-41
2022/11/28 09:35:38;;;;;;;;;;;7.90;99.90;;;7.28;100.00;96952.16;5041119;28;19920;-42
2022/11/28 09:38:04;;;;;;;;;;;8.00;99.90;;;7.27;100.00;96950.47;5045184;28;19932;-42
2022/11/28 09:40:38;;;;;;;;;;;8.00;99.90;;;7.33;100.00;96957.28;5046468;28;19912;-41
2022/11/28 09:43:15;;;;;;;;;;;8.00;99.90;;;7.38;100.00;96965.88;5045764;22;19932;-39
2022/11/28 09:45:42;;;;;;;;;;;8.00;99.90;;;7.38;100.00;96958.00;5044987;28;20765;-39
2022/11/28 09:48:20;;;;;;;;;;;8.10;99.90;;;7.40;100.00;96949.16;5027958;28;19917;-39
2022/11/28 09:50:46;;;;;;;;;;;8.10;99.90;;;7.37;100.00;96938.75;5046039;28;19940;-39
2022/11/28 09:53:36;;;;;;;;;;;8.10;99.90;;;7.40;100.00;96940.44;5028496;28;20011;-39
2022/11/28 09:56:16;;;;;;;;;;;8.10;99.90;;;7.41;100.00;96929.91;5036365;28;20096;-39
2022/11/28 09:58:52;;;;;;;;;;;8.10;99.90;;;7.45;100.00;96925.44;5046643;28;20199;-37
2022/11/28 10:01:29;;;;;;;;;;;8.10;99.90;;;7.50;100.00;96920.00;5046619;28;19957;-38
2022/11/28 10:04:00;;;;;;;;;;;8.10;99.90;;;7.54;100.00;96921.66;5039616;28;19921;-39
2022/11/28 10:06:32;;;;;;;;;;;8.20;99.90;;;7.41;100.00;96932.53;5020586;28;19925;-39
2022/11/28 10:09:13;;;;;;;;;;;8.10;99.90;;;7.38;100.00;96940.50;5025546;28;19912;-39
2022/11/28 10:12:11;;;;;;;;;;;8.00;99.90;;;7.35;100.00;96950.22;5042465;28;19923;-39
2022/11/28 10:14:42;;;;;;;;;;;8.00;99.90;;;7.37;100.00;96951.88;5043730;28;21368;-39
2022/11/28 10:17:31;;;;;;;;;;;8.00;99.90;;;7.38;100.00;96937.88;5036264;28;20170;-39
2022/11/28 10:20:04;;;;;;;;;;;8.00;99.90;;;7.39;100.00;96947.47;5044441;28;19982;-39
2022/11/28 10:22:41;;;;;;;;;;;8.00;99.90;;;7.41;100.00;96950.91;5025579;28;19912;-39
2022/11/28 10:25:16;;;;;;;;;;;8.10;99.90;;;7.46;100.00;96945.50;5043870;28;19916;-39
2022/11/28 10:27:41;;;;;;;;;;;8.10;99.90;;;7.54;100.00;96940.88;5026259;28;19916;-39
2022/11/28 10:30:23;;;;;;;;;;;8.20;99.90;;;7.60;100.00;96947.69;5045212;28;20413;-39
2022/11/28 10:32:55;;;;;;;;;;;8.30;99.90;;;7.65;100.00;96943.16;5028301;28;19929;-39
2022/11/28 10:35:34;;;;;;;;;;;8.30;99.90;;;7.71;100.00;96931.59;5028997;28;20392;-39
2022/11/28 10:37:59;;;;;;;;;;;8.40;99.90;;;7.80;100.00;96918.16;5048908;28;19948;-39
2022/11/28 10:40:31;;;;;;;;;;;8.50;99.90;;;7.90;100.00;96937.94;5027677;28;20590;-39
2022/11/28 10:42:58;;;;;;;;;;;8.60;99.90;;;7.90;100.00;96947.59;5042954;28;19920;-40
2022/11/28 10:45:48;;;;;;;;;;;8.60;99.90;;;7.99;100.00;96942.03;5026433;28;19942;-39
2022/11/28 10:48:25;;;;;;;;;;;8.60;99.90;;;8.08;100.00;96932.97;5044539;28;20424;-39
2022/11/28 10:51:25;;;;;;;;;;;8.70;99.90;;;8.18;100.00;96932.63;5014892;28;19913;-39
2022/11/28 10:54:02;;;;;;;;;;;8.80;99.90;;;8.28;100.00;96942.78;5029038;28;20125;-39
2022/11/28 10:56:30;;;;;;;;;;;8.90;99.90;;;8.36;100.00;96946.88;5029027;28;19908;-39
2022/11/28 10:59:05;;;;;;;;;;;9.00;99.90;;;8.37;100.00;96940.69;5047111;28;19908;-39
2022/11/28 11:01:36;;;;;;;;;;;9.00;99.90;;;8.34;100.00;96934.69;5047029;28;19920;-40
2022/11/28 11:04:02;;;;;;;;;;;9.00;99.90;;;8.35;100.00;96933.78;5031815;28;19917;-40
2022/11/28 11:06:28;;;;;;;;;;;9.00;99.90;;;8.38;100.00;96926.66;5044810;28;19912;-40
2022/11/28 11:08:54;;;;;;;;;;;9.00;99.90;;;8.38;100.00;96933.66;5047888;28;20019;-39
2022/11/28 11:11:32;;;;;;;;;;;9.00;99.90;;;8.35;100.00;96941.66;5048196;28;20286;-39
2022/11/28 11:14:10;;;;;;;;;;;9.00;99.90;;;8.36;100.00;96932.84;5031844;28;19920;-40
2022/11/28 11:16:49;;;;;;;;;;;9.00;99.90;;;8.35;100.00;96937.25;5042534;28;20274;-40
2022/11/28 11:19:41;;;;;;;;;;;9.00;99.90;;;8.34;100.00;96929.44;5044327;28;20010;-39
2022/11/28 11:22:27;;;;;;;;;;;9.00;99.90;;;8.32;100.00;96931.25;5045096;28;19967;-40
2022/11/28 11:25:11;;;;;;;;;;;9.00;99.90;;;8.13;100.00;96910.00;5049832;28;19978;-39
2022/11/28 11:27:38;;;;;;;;;;;8.90;99.90;;;8.20;100.00;96928.16;5041700;28;19923;-40
2022/11/28 11:30:22;;;;;;;;;;;8.90;99.90;;;8.11;100.00;96933.72;5020320;28;19951;-39
2022/11/28 11:32:48;;;;;;;;;;;8.80;99.90;;;8.07;100.00;96918.13;5038222;28;19916;-39
2022/11/28 11:35:20;;;;;;;;;;;8.80;99.90;;;7.98;100.00;96917.50;5033055;28;19919;-39
2022/11/28 11:37:45;;;;;;;;;;;8.70;99.90;;;7.98;100.00;96921.91;5030071;28;20334;-39
2022/11/28 11:40:23;;;;;;;;;;;8.70;99.90;;;7.96;100.00;96921.97;5046956;28;19967;-39